KAUG/AUG METAR and TAF weather

Enter ICAO airport designator
Station Type Date Time Source
KAUG METAR 2021/01/16 02:53 UTC NOAA

KAUG 160253Z AUTO 00000KT 10SM BKN046 M02/M06 A3012 RMK AO2 SLP205 T10171056 50006


Station Type Date Time Source
KAUG Decoded METAR 2021/01/16 02:53 UTC NOAA

AUGUSTA STATE AIRPORT, ME, United States (KAUG) 44-19N 069-48W 109M
Jan 15, 2021 - 09:53 PM EST / 2021.01.16 0253 UTC
Wind: Calm:0
Visibility: 10 mile(s):0
Sky conditions: mostly cloudy
Temperature: 28.9 F (-1.7 C)
Dew Point: 21.9 F (-5.6 C)
Relative Humidity: 74%
Pressure (altimeter): 30.12 in. Hg (1019 hPa)
Pressure tendency: 0.02 inches (0.6 hPa) higher than three hours ago
ob: KAUG 160253Z AUTO 00000KT 10SM BKN046 M02/M06 A3012 RMK AO2 SLP205 T10171056 50006
cycle: 3

Station Type Date Time Source
KAUG TAF 2021/01/15 18:45 UTC NOAA

TAF KAUG 151742Z 1518/1618 VRB04KT P6SM BKN200
FM160400 06005KT P6SM BKN025
FM161300 07010G18KT 3SM -SN BR OVC015
FM161600 07012G22KT 2SM -SNRA BR OVC003

Example: see airport list